Time;durP1;ratioP1;P1;durP2;ratioP2;P2;SDS_P1;SDS_P2;PMS_P1;PMS_P2;Temp;Humidity;BMP_temperature;BMP_pressure;BME280_temperature;BME280_humidity;BME280_pressure;Samples;Min_cycle;Max_cycle;Signal;HPM_P1;HPM_P2
2022/06/06 00:01:45;;;;;;;4.03;2.30;;;;;;;16.96;nan;100562.66;4986476;28;20041;-73
2022/06/06 00:04:10;;;;;;;2.88;2.05;;;;;;;16.94;nan;100555.84;4984970;28;20042;-73
2022/06/06 00:06:36;;;;;;;4.15;2.47;;;;;;;16.92;nan;100560.56;4991180;28;20037;-73
2022/06/06 00:09:02;;;;;;;2.85;2.17;;;;;;;16.91;nan;100564.25;4996727;28;20458;-73
2022/06/06 00:11:32;;;;;;;2.90;2.20;;;;;;;16.92;nan;100558.72;4988993;28;20030;-73
2022/06/06 00:13:57;;;;;;;4.68;2.60;;;;;;;16.92;nan;100552.53;4987921;28;20034;-73
2022/06/06 00:16:22;;;;;;;3.50;2.45;;;;;;;16.90;nan;100558.09;4986290;28;20580;-73
2022/06/06 00:18:47;;;;;;;4.20;2.75;;;;;;;16.88;nan;100552.13;4987036;28;20510;-73
2022/06/06 00:21:13;;;;;;;5.53;3.23;;;;;;;16.89;nan;100560.94;4991255;28;20042;-74
2022/06/06 00:23:39;;;;;;;2.70;2.30;;;;;;;16.87;nan;100558.44;4986442;28;20292;-73
2022/06/06 00:26:09;;;;;;;2.65;2.28;;;;;;;16.83;nan;100549.19;4987069;28;20507;-73
2022/06/06 00:28:35;;;;;;;3.03;2.40;;;;;;;16.83;nan;100549.19;4987865;28;20673;-74
2022/06/06 00:36:34;;;;;;;3.70;2.45;;;;;;;16.81;nan;100561.91;4983794;28;20304;-74
2022/06/06 00:39:00;;;;;;;3.17;2.50;;;;;;;16.77;nan;100555.25;4988233;28;20034;-73
2022/06/06 00:41:26;;;;;;;3.00;2.60;;;;;;;16.75;nan;100557.28;4991319;28;20042;-73
2022/06/06 00:44:05;;;;;;;4.05;3.25;;;;;;;16.74;nan;100556.47;4986629;28;20046;-73
2022/06/06 00:46:34;;;;;;;4.47;3.08;;;;;;;16.71;nan;100556.03;4985601;28;20031;-73
2022/06/06 00:49:01;;;;;;;3.63;3.00;;;;;;;16.69;nan;100552.72;4986970;28;20026;-73
2022/06/06 00:51:26;;;;;;;3.50;3.00;;;;;;;16.66;nan;100548.59;4983061;28;20026;-73
2022/06/06 00:53:58;;;;;;;4.63;2.80;;;;;;;16.66;nan;100553.09;4968198;28;20100;-73
2022/06/06 00:56:44;;;;;;;;;;;;;;;16.62;nan;100550.00;4971000;28;20046;-73
2022/06/06 00:59:14;;;;;;;4.68;3.10;;;;;;;16.63;nan;100548.13;4986686;28;19929;-73
2022/06/06 01:01:40;;;;;;;5.25;3.53;;;;;;;16.63;nan;100545.47;4983866;28;20109;-73
2022/06/06 01:04:08;;;;;;;4.25;3.22;;;;;;;16.61;nan;100544.84;4990792;28;20042;-74
2022/06/06 01:06:38;;;;;;;3.83;3.10;;;;;;;16.60;nan;100546.69;4988791;28;20518;-73
2022/06/06 01:09:03;;;;;;;4.70;3.10;;;;;;;16.58;nan;100548.72;4989313;28;20050;-73
2022/06/06 01:11:32;;;;;;;4.18;3.00;;;;;;;16.56;nan;100543.59;4988560;28;20096;-73
2022/06/06 01:13:57;;;;;;;4.93;3.20;;;;;;;16.54;nan;100542.09;4988042;28;20042;-73
2022/06/06 01:16:29;;;;;;;5.13;3.17;;;;;;;16.48;nan;100535.69;4987156;28;20204;-72
2022/06/06 01:18:57;;;;;;;3.72;3.03;;;;;;;16.44;nan;100530.91;4988799;28;20056;-73
2022/06/06 01:21:35;;;;;;;5.45;3.50;;;;;;;16.42;nan;100524.94;4988671;28;20042;-73
2022/06/06 01:24:31;;;;;;;3.97;2.70;;;;;;;16.37;nan;100516.69;4987851;28;20054;-73
2022/06/06 01:27:23;;;;;;;3.83;3.30;;;;;;;16.32;nan;100515.41;4988760;28;20042;-73
2022/06/06 01:29:58;;;;;;;3.67;2.65;;;;;;;16.28;nan;100514.13;4964395;28;20030;-73
2022/06/06 01:32:24;;;;;;;4.50;3.08;;;;;;;16.26;nan;100516.16;4988031;28;20129;-73
2022/06/06 01:34:53;;;;;;;4.30;3.20;;;;;;;16.22;nan;100506.88;4972825;28;20034;-73
2022/06/06 01:37:39;;;;;;;5.72;3.25;;;;;;;16.21;nan;100512.41;4977814;28;20027;-73
2022/06/06 01:40:12;;;;;;;5.13;3.60;;;;;;;16.18;nan;100510.13;4987648;28;20096;-73
2022/06/06 01:42:50;;;;;;;5.35;4.18;;;;;;;16.14;nan;100515.84;4987648;28;20046;-73
2022/06/06 01:45:29;;;;;;;4.18;3.72;;;;;;;16.11;nan;100521.56;4989002;28;20098;-73
2022/06/06 01:48:02;;;;;;;5.32;4.07;;;;;;;16.11;nan;100518.03;4987377;28;20046;-73
2022/06/06 01:50:29;;;;;;;7.72;3.78;;;;;;;16.10;nan;100511.06;4987234;28;20071;-73
2022/06/06 01:53:03;;;;;;;4.55;3.63;;;;;;;16.08;nan;100515.75;4985942;28;20188;-73
2022/06/06 01:55:30;;;;;;;5.32;3.65;;;;;;;16.06;nan;100512.44;4988173;28;20088;-73
2022/06/06 01:57:59;;;;;;;4.75;3.13;;;;;;;16.05;nan;100511.63;4986595;28;20045;-73
2022/06/06 02:00:25;;;;;;;4.05;3.10;;;;;;;16.03;nan;100507.50;4987039;28;20050;-73
2022/06/06 02:02:52;;;;;;;4.60;3.70;;;;;;;16.01;nan;100507.66;4987788;28;20090;-73
2022/06/06 02:05:17;;;;;;;4.43;3.70;;;;;;;16.01;nan;100506.84;4988490;28;20030;-73
2022/06/06 02:07:43;;;;;;;4.35;3.95;;;;;;;16.00;nan;100503.38;4986957;28;20041;-74
2022/06/06 02:10:10;;;;;;;4.38;3.40;;;;;;;15.99;nan;100508.88;4987672;28;20038;-73
2022/06/06 02:12:37;;;;;;;4.90;3.92;;;;;;;15.99;nan;100520.38;4986368;28;20034;-73
2022/06/06 02:15:04;;;;;;;5.40;4.18;;;;;;;15.97;nan;100510.91;4987540;28;20488;-73
2022/06/06 02:17:30;;;;;;;4.95;3.90;;;;;;;15.97;nan;100508.22;4987984;28;20073;-73
2022/06/06 02:19:55;;;;;;;5.03;3.88;;;;;;;15.96;nan;100511.94;4987179;28;20145;-73
2022/06/06 02:22:20;;;;;;;5.13;4.43;;;;;;;15.93;nan;100521.94;4969219;28;20565;-73
2022/06/06 02:24:46;;;;;;;5.35;4.28;;;;;;;15.93;nan;100516.63;4987045;28;20034;-73
2022/06/06 02:27:11;;;;;;;6.70;4.75;;;;;;;15.91;nan;100523.97;4987198;28;20034;-73
2022/06/06 02:29:38;;;;;;;4.60;4.10;;;;;;;15.91;nan;100531.97;4986582;28;20133;-73
2022/06/06 02:32:05;;;;;;;5.75;4.82;;;;;;;15.90;nan;100519.66;4985681;28;20027;-73
2022/06/06 02:34:30;;;;;;;6.85;4.53;;;;;;;15.88;nan;100519.03;4991324;28;20041;-73
2022/06/06 02:36:55;;;;;;;5.10;4.22;;;;;;;15.85;nan;100511.41;4987239;28;20042;-73
2022/06/06 02:39:20;;;;;;;5.57;4.35;;;;;;;15.85;nan;100515.88;4984237;28;20065;-73
2022/06/06 02:41:46;;;;;;;6.15;4.40;;;;;;;15.84;nan;100515.06;4973237;28;20034;-73
2022/06/06 02:44:11;;;;;;;4.57;3.70;;;;;;;15.80;nan;100519.13;4985880;28;20050;-74
2022/06/06 02:46:36;;;;;;;5.50;4.10;;;;;;;15.78;nan;100522.97;4989234;28;20368;-73
2022/06/06 02:49:02;;;;;;;5.30;4.20;;;;;;;15.76;nan;100530.34;4987444;28;20324;-73
2022/06/06 02:51:28;;;;;;;7.30;5.15;;;;;;;15.76;nan;100525.03;4987841;28;20035;-73
2022/06/06 02:53:53;;;;;;;8.48;5.05;;;;;;;15.76;nan;100533.03;4985926;28;20045;-73
2022/06/06 02:56:18;;;;;;;6.15;4.57;;;;;;;15.74;nan;100537.72;4987083;28;20069;-73
2022/06/06 02:58:44;;;;;;;5.07;4.35;;;;;;;15.71;nan;100528.25;4987058;28;20129;-73
2022/06/06 03:01:10;;;;;;;4.88;4.20;;;;;;;15.69;nan;100530.22;4986882;28;20418;-73
2022/06/06 03:03:38;;;;;;;6.63;4.63;;;;;;;15.66;nan;100528.78;4987342;28;20034;-74
2022/06/06 03:06:25;;;;;;;6.55;5.25;;;;;;;15.66;nan;100530.59;4990932;28;20092;-73
2022/06/06 03:09:08;;;;;;;6.18;4.80;;;;;;;15.65;nan;100523.63;4989799;28;20053;-73
2022/06/06 03:12:03;;;;;;;6.82;4.65;;;;;;;15.63;nan;100529.13;4990804;28;20038;-73
2022/06/06 03:14:53;;;;;;;7.70;5.70;;;;;;;15.69;nan;100528.38;4985781;28;20035;-73
2022/06/06 03:20:59;;;;;;;5.82;4.80;;;;;;;15.76;nan;100525.84;4985541;28;20045;-73
2022/06/06 03:23:57;;;;;;;5.72;4.93;;;;;;;15.81;nan;100527.97;4916147;29;20046;-73
2022/06/06 03:27:16;;;;;;;8.35;5.80;;;;;;;15.91;nan;100537.31;4990960;28;20060;-73
2022/06/06 03:30:19;;;;;;;7.10;5.68;;;;;;;15.99;nan;100543.53;4915375;29;20105;-73
2022/06/06 03:33:10;;;;;;;7.78;5.63;;;;;;;16.05;nan;100540.16;4990000;28;20026;-73
2022/06/06 03:35:54;;;;;;;8.02;5.50;;;;;;;16.08;nan;100545.91;4990792;28;20121;-73
2022/06/06 03:38:43;;;;;;;6.55;5.65;;;;;;;16.16;nan;100544.16;4988184;28;20046;-73
2022/06/06 03:41:20;;;;;;;5.07;4.55;;;;;;;16.24;nan;100542.22;4994125;28;20034;-73
2022/06/06 03:44:06;;;;;;;5.75;4.28;;;;;;;16.33;nan;100549.09;4989840;28;20038;-73
2022/06/06 03:47:06;;;;;;;8.65;4.78;;;;;;;16.41;nan;100548.13;4972185;28;20034;-73
2022/06/06 03:49:40;;;;;;;5.30;4.65;;;;;;;16.47;nan;100551.88;4989615;28;20550;-73
2022/06/06 03:52:24;;;;;;;5.30;4.75;;;;;;;16.51;nan;100551.31;4989109;28;20385;-73
2022/06/06 03:55:28;;;;;;;5.20;4.70;;;;;;;16.58;nan;100551.38;4987054;28;20113;-73
2022/06/06 03:57:56;;;;;;;6.07;4.80;;;;;;;16.63;nan;100559.63;4980508;28;20075;-73
2022/06/06 04:00:23;;;;;;;5.60;4.88;;;;;;;16.67;nan;100565.44;4989932;28;20053;-73
2022/06/06 04:02:49;;;;;;;5.93;4.85;;;;;;;16.72;nan;100566.50;4988561;28;20038;-73
2022/06/06 04:05:18;;;;;;;6.45;4.90;;;;;;;16.79;nan;100568.47;4969122;28;20034;-73
2022/06/06 04:07:44;;;;;;;7.10;4.57;;;;;;;16.86;nan;100564.00;4989621;28;20037;-73
2022/06/06 04:10:11;;;;;;;5.30;4.45;;;;;;;16.92;nan;100573.91;4989055;28;20520;-74
2022/06/06 04:12:54;;;;;;;5.63;4.78;;;;;;;16.97;nan;100574.16;4989691;28;20050;-73
2022/06/06 04:15:23;;;;;;;6.47;4.47;;;;;;;17.03;nan;100578.72;4987652;28;20050;-74
2022/06/06 04:17:51;;;;;;;4.80;4.30;;;;;;;17.09;nan;100579.78;4988401;28;20108;-74
2022/06/06 04:20:16;;;;;;;5.18;3.95;;;;;;;17.11;nan;100586.63;4975703;28;20062;-73
2022/06/06 04:23:04;;;;;;;5.43;4.50;;;;;;;17.14;nan;100583.56;4987889;28;20046;-73
2022/06/06 04:25:45;;;;;;;4.70;4.13;;;;;;;17.18;nan;100592.84;4986936;28;20097;-73
2022/06/06 04:28:23;;;;;;;6.68;4.40;;;;;;;17.23;nan;100591.41;4987944;28;20040;-74
2022/06/06 04:30:54;;;;;;;4.97;4.10;;;;;;;17.24;nan;100587.75;4989159;28;20399;-73
2022/06/06 04:33:48;;;;;;;4.85;4.22;;;;;;;17.28;nan;100584.50;4988896;28;20510;-73
2022/06/06 04:36:23;;;;;;;5.60;4.28;;;;;;;17.36;nan;100572.81;4993757;28;20034;-73
2022/06/06 04:39:21;;;;;;;5.10;4.38;;;;;;;17.43;nan;100571.03;4986179;28;20100;-73
2022/06/06 04:42:11;;;;;;;5.80;4.45;;;;;;;17.56;nan;100570.28;4990728;28;20034;-73
2022/06/06 04:44:57;;;;;;;4.80;4.18;;;;;;;17.67;nan;100575.06;4986103;28;20046;-73
2022/06/06 04:47:43;;;;;;;5.57;4.07;;;;;;;17.75;nan;100571.41;4984261;28;20031;-74
2022/06/06 04:50:15;;;;;;;5.30;4.10;;;;;;;17.79;nan;100572.66;4987768;28;20038;-73
2022/06/06 04:52:46;;;;;;;4.55;3.97;;;;;;;17.81;nan;100571.47;4970725;28;20046;-73
2022/06/06 04:55:12;;;;;;;5.30;3.90;;;;;;;17.85;nan;100568.41;4987423;28;20040;-73
2022/06/06 04:57:42;;;;;;;3.95;3.55;;;;;;;17.87;nan;100567.16;4988390;28;20121;-73
2022/06/06 05:00:08;;;;;;;4.35;3.72;;;;;;;17.86;nan;100562.84;4989332;28;20105;-74
2022/06/06 05:02:35;;;;;;;4.60;3.78;;;;;;;17.90;nan;100566.78;4988626;28;20093;-73
2022/06/06 05:05:01;;;;;;;3.80;3.40;;;;;;;17.91;nan;100568.44;4987855;28;20073;-73
2022/06/06 05:07:55;;;;;;;4.20;3.80;;;;;;;17.89;nan;100567.81;4987243;28;20057;-74
2022/06/06 05:10:39;;;;;;;4.57;3.60;;;;;;;17.85;nan;100571.88;4966744;28;20113;-73
2022/06/06 05:13:21;;;;;;;4.00;3.50;;;;;;;17.79;nan;100559.28;4988219;28;20034;-74
2022/06/06 05:16:12;;;;;;;3.55;3.08;;;;;;;17.78;nan;100573.69;4986494;28;20035;-74
2022/06/06 05:18:56;;;;;;;3.95;3.20;;;;;;;17.79;nan;100564.66;4987811;28;20399;-73
2022/06/06 05:21:35;;;;;;;5.15;3.88;;;;;;;17.85;nan;100568.41;4988623;28;20096;-73
2022/06/06 05:24:24;;;;;;;4.50;3.42;;;;;;;17.94;nan;100567.22;4987411;28;20126;-73
2022/06/06 05:27:10;;;;;;;4.70;3.20;;;;;;;17.98;nan;100571.97;4987333;28;20398;-74
2022/06/06 05:29:48;;;;;;;4.43;3.80;;;;;;;18.08;nan;100568.91;4986523;28;20506;-74
2022/06/06 05:32:35;;;;;;;4.47;3.85;;;;;;;18.17;nan;100566.91;4987764;28;20391;-74
2022/06/06 05:35:35;;;;;;;4.10;3.70;;;;;;;18.31;nan;100565.09;4991996;28;20057;-73
2022/06/06 05:38:12;;;;;;;3.78;3.05;;;;;;;18.48;nan;100561.00;4988709;28;20060;-74
2022/06/06 05:40:49;;;;;;;5.03;3.60;;;;;;;18.57;nan;100556.31;4991448;28;20041;-74
2022/06/06 05:43:30;;;;;;;4.72;3.30;;;;;;;18.72;nan;100558.78;4987960;28;20451;-74
2022/06/06 05:46:32;;;;;;;5.13;4.15;;;;;;;18.97;nan;100564.38;4986930;28;20104;-74
2022/06/06 05:49:08;;;;;;;5.10;3.78;;;;;;;19.38;nan;100572.22;4986603;28;20078;-74
2022/06/06 05:51:58;;;;;;;4.53;3.53;;;;;;;19.58;nan;100568.66;4987444;28;20034;-73
2022/06/06 05:54:30;;;;;;;3.80;3.35;;;;;;;19.61;nan;100571.72;4988126;28;20041;-74
2022/06/06 05:57:11;;;;;;;4.03;3.10;;;;;;;19.65;nan;100577.50;4986299;28;20068;-74
2022/06/06 06:00:09;;;;;;;4.38;3.33;;;;;;;19.66;nan;100577.31;4989098;28;20521;-74
2022/06/06 06:02:50;;;;;;;3.20;2.70;;;;;;;19.66;nan;100582.69;4987043;28;20161;-74
2022/06/06 06:05:31;;;;;;;4.07;2.85;;;;;;;19.64;nan;100594.63;4971481;28;20030;-74
2022/06/06 06:08:19;;;;;;;4.15;3.35;;;;;;;19.56;nan;100605.59;4988123;28;20769;-74
2022/06/06 06:10:59;;;;;;;5.07;3.75;;;;;;;19.50;nan;100613.44;4986440;28;20065;-73
2022/06/06 06:13:52;;;;;;;3.92;3.50;;;;;;;19.51;nan;100620.44;4988048;28;20133;-74
2022/06/06 06:16:21;;;;;;;4.03;3.50;;;;;;;19.63;nan;100625.19;4980722;28;20043;-74
2022/06/06 06:18:54;;;;;;;4.47;3.33;;;;;;;19.88;nan;100625.38;4987673;28;20038;-74
2022/06/06 06:21:23;;;;;;;4.97;3.70;;;;;;;19.91;nan;100630.31;4987960;28;20061;-74
2022/06/06 06:24:01;;;;;;;5.18;3.40;;;;;;;19.84;nan;100632.19;4986216;28;20381;-74
2022/06/06 06:26:29;;;;;;;3.63;3.20;;;;;;;19.77;nan;100640.25;4983742;28;20125;-74
2022/06/06 06:28:58;;;;;;;4.05;3.50;;;;;;;19.65;nan;100640.03;4987362;28;20072;-73
2022/06/06 06:31:31;;;;;;;3.95;3.10;;;;;;;19.62;nan;100636.97;4979488;28;20535;-73
2022/06/06 06:34:15;;;;;;;4.65;3.45;;;;;;;19.63;nan;100639.41;4974094;28;20092;-74
2022/06/06 06:37:12;;;;;;;7.38;4.75;;;;;;;19.53;nan;100641.69;4987806;28;20407;-75
2022/06/06 06:40:09;;;;;;;5.75;3.70;;;;;;;19.47;nan;100643.38;4988975;28;20061;-73
2022/06/06 06:42:49;;;;;;;4.78;3.70;;;;;;;19.51;nan;100639.22;4991433;28;20046;-74
2022/06/06 06:45:19;;;;;;;4.25;3.35;;;;;;;19.51;nan;100644.59;4991138;28;20503;-73
2022/06/06 06:47:51;;;;;;;5.82;3.78;;;;;;;19.62;nan;100648.50;4992066;28;20026;-74
2022/06/06 06:50:19;;;;;;;4.43;3.85;;;;;;;19.59;nan;100654.25;4992348;28;20026;-74
2022/06/06 06:52:48;;;;;;;6.18;4.20;;;;;;;19.66;nan;100646.22;4990072;28;20038;-74
2022/06/06 06:55:16;;;;;;;6.35;4.03;;;;;;;19.60;nan;100653.25;4991060;28;20114;-74
2022/06/06 06:58:19;;;;;;;5.40;3.60;;;;;;;19.60;nan;100658.63;4990923;28;20038;-73
2022/06/06 07:01:03;;;;;;;4.40;3.53;;;;;;;19.66;nan;100652.44;4987174;28;20069;-74
2022/06/06 07:09:43;;;;;;;4.15;3.45;;;;;;;19.90;nan;100642.91;4988745;28;20407;-74
2022/06/06 07:12:19;;;;;;;4.82;3.30;;;;;;;20.17;nan;100650.06;4990154;28;20064;-74
2022/06/06 07:15:06;;;;;;;6.13;3.67;;;;;;;20.36;nan;100646.47;4990781;28;20407;-74
2022/06/06 07:17:40;;;;;;;4.18;3.13;;;;;;;20.51;nan;100651.56;4986474;28;20434;-73
2022/06/06 07:20:09;;;;;;;5.63;3.40;;;;;;;20.82;nan;100641.91;4989489;28;20026;-73
2022/06/06 07:25:34;;;;;;;6.53;3.03;;;;;;;21.80;nan;100650.22;4986899;28;20093;-75
2022/06/06 07:27:59;;;;;;;4.68;3.30;;;;;;;21.95;nan;100649.88;4988897;28;20129;-73
2022/06/06 07:30:29;;;;;;;5.30;2.80;;;;;;;21.96;nan;100656.09;4990721;28;20125;-73
2022/06/06 07:33:13;;;;;;;4.68;3.20;;;;;;;21.81;nan;100653.75;4989680;28;20097;-74
2022/06/06 07:35:51;;;;;;;3.80;2.97;;;;;;;21.51;nan;100638.31;4989662;28;20165;-74
2022/06/06 07:38:34;;;;;;;5.07;3.60;;;;;;;21.23;nan;100645.97;4987718;28;20581;-74
2022/06/06 07:41:25;;;;;;;4.88;3.08;;;;;;;21.26;nan;100641.00;4992295;28;20038;-74
2022/06/06 07:44:02;;;;;;;4.57;3.00;;;;;;;21.63;nan;100638.41;4990803;28;20141;-74
2022/06/06 07:46:47;;;;;;;4.88;2.90;;;;;;;22.16;nan;100645.91;4990641;28;20034;-74
2022/06/06 07:49:15;;;;;;;3.58;2.60;;;;;;;22.61;nan;100642.88;4990615;28;20026;-75
2022/06/06 07:52:25;;;;;;;4.10;2.55;;;;;;;22.84;nan;100641.31;4987922;28;20064;-74
2022/06/06 07:55:02;;;;;;;3.85;2.85;;;;;;;22.89;nan;100646.84;4961193;28;20047;-73
2022/06/06 07:57:53;;;;;;;3.50;2.67;;;;;;;22.67;nan;100647.34;4951013;28;20501;-74
2022/06/06 08:00:28;;;;;;;4.93;2.80;;;;;;;22.40;nan;100641.47;4973892;28;20121;-73
2022/06/06 08:03:12;;;;;;;5.70;2.97;;;;;;;22.09;nan;100638.94;4987762;28;20038;-74
2022/06/06 08:05:56;;;;;;;4.22;3.20;;;;;;;21.98;nan;100643.22;4986100;28;20089;-74
2022/06/06 08:08:50;;;;;;;4.07;2.80;;;;;;;22.83;nan;100629.69;4969260;28;20057;-74
2022/06/06 08:11:31;;;;;;;3.33;2.55;;;;;;;23.18;nan;100626.28;4988406;28;20117;-74
2022/06/06 08:14:34;;;;;;;4.00;2.50;;;;;;;23.87;nan;100626.53;4989289;28;20043;-75
2022/06/06 08:17:12;;;;;;;4.47;2.60;;;;;;;24.84;nan;100618.66;4987292;28;20399;-74
2022/06/06 08:19:43;;;;;;;5.25;2.65;;;;;;;25.34;nan;100615.22;4989284;28;20121;-74
2022/06/06 08:22:10;;;;;;;3.17;2.40;;;;;;;25.83;nan;100618.88;4987774;28;20039;-75
2022/06/06 08:24:45;;;;;;;4.40;2.50;;;;;;;25.97;nan;100622.06;4984752;28;20176;-74
2022/06/06 08:27:17;;;;;;;4.00;2.58;;;;;;;25.50;nan;100608.13;4989644;28;20042;-74
2022/06/06 08:29:44;;;;;;;3.05;2.20;;;;;;;25.20;nan;100599.31;4987201;28;20396;-74
2022/06/06 08:32:11;;;;;;;2.42;2.03;;;;;;;25.62;nan;100600.69;4988408;28;20038;-74
2022/06/06 08:34:37;;;;;;;2.83;2.10;;;;;;;26.41;nan;100600.34;4990629;28;20046;-74
2022/06/06 08:37:30;;;;;;;2.88;1.85;;;;;;;27.10;nan;100598.81;4989545;28;20127;-75
2022/06/06 08:40:41;;;;;;;4.15;2.65;;;;;;;26.95;nan;100596.78;4987839;28;20039;-74
2022/06/06 08:43:33;;;;;;;4.53;2.33;;;;;;;26.04;nan;100598.31;4974444;28;20034;-74
2022/06/06 08:46:28;;;;;;;3.35;2.40;;;;;;;25.87;nan;100592.13;4988354;28;20046;-74
2022/06/06 08:52:25;;;;;;;4.90;2.30;;;;;;;26.27;nan;100589.09;4988175;28;20300;-74
2022/06/06 08:55:17;;;;;;;2.95;2.13;;;;;;;26.31;nan;100585.84;4986884;28;20077;-75
2022/06/06 08:58:21;;;;;;;4.72;2.40;;;;;;;25.45;nan;100584.50;4985980;28;20037;-74
2022/06/06 09:01:07;;;;;;;2.88;2.10;;;;;;;24.73;nan;100577.13;4965563;28;20030;-74
2022/06/06 09:04:00;;;;;;;3.13;2.00;;;;;;;24.08;nan;100575.66;4987178;28;20070;-74
2022/06/06 09:06:25;;;;;;;3.75;2.30;;;;;;;23.64;nan;100577.94;4981648;28;20050;-73
2022/06/06 09:09:25;;;;;;;2.00;1.67;;;;;;;23.48;nan;100582.19;4968653;28;20507;-74
2022/06/06 09:12:16;;;;;;;3.88;2.30;;;;;;;24.09;nan;100571.88;4985101;28;20057;-73
2022/06/06 09:14:54;;;;;;;2.70;1.65;;;;;;;25.39;nan;100578.19;4983796;28;20488;-74
2022/06/06 09:18:17;;;;;;;3.20;1.75;;;;;;;26.55;nan;100586.41;4996470;28;20034;-74
2022/06/06 09:21:04;;;;;;;1.77;1.38;;;;;;;28.01;nan;100573.31;4931722;28;20109;-75
2022/06/06 09:23:36;;;;;;;2.30;1.02;;;;;;;30.10;nan;100581.59;4987406;28;20542;-75
2022/06/06 09:26:23;;;;;;;1.98;1.30;;;;;;;30.87;nan;100573.78;4988778;28;20052;-75
2022/06/06 09:29:16;;;;;;;2.38;1.40;;;;;;;30.13;nan;100581.88;4986716;28;20031;-75
2022/06/06 09:32:06;;;;;;;2.00;1.10;;;;;;;29.19;nan;100579.69;4985697;28;20039;-75
2022/06/06 09:34:44;;;;;;;2.00;1.27;;;;;;;28.09;nan;100585.56;4987196;28;20042;-74
2022/06/06 09:37:29;;;;;;;3.35;1.30;;;;;;;27.32;nan;100580.53;4988151;28;20129;-74
2022/06/06 09:40:19;;;;;;;2.25;1.20;;;;;;;28.05;nan;100579.81;4987075;28;20447;-74
2022/06/06 09:43:08;;;;;;;1.93;1.30;;;;;;;29.77;nan;100576.59;4983670;28;20061;-74
2022/06/06 09:46:05;;;;;;;1.90;0.98;;;;;;;31.09;nan;100579.56;4985626;28;20456;-74
2022/06/06 09:49:08;;;;;;;1.40;1.00;;;;;;;30.68;nan;100579.91;4982307;28;20781;-75
2022/06/06 09:51:52;;;;;;;;;;;;;;;28.91;nan;100578.34;4958122;28;20248;-75
2022/06/06 10:00:22;;;;;;;1.88;1.10;;;;;;;29.11;nan;100571.28;4987639;28;19940;-74
2022/06/06 10:03:02;;;;;;;;;;;;;;;29.83;nan;100571.91;5000630;28;20042;-74
2022/06/06 10:06:05;;;;;;;1.77;1.10;;;;;;;31.99;nan;100570.94;4980013;28;19925;-75
2022/06/06 10:08:58;;;;;;;0.98;0.73;;;;;;;33.49;nan;100552.59;5003180;28;20030;-74
2022/06/06 10:11:30;;;;;;;2.42;1.23;;;;;;;34.32;nan;100555.22;5003142;28;20125;-74
2022/06/06 10:14:03;;;;;;;;;;;;;;;34.54;nan;100562.66;5002892;28;20034;-75
2022/06/06 10:16:44;;;;;;;1.63;1.00;;;;;;;34.89;nan;100566.47;4991067;28;19968;-76
2022/06/06 10:19:42;;;;;;;2.13;1.00;;;;;;;35.39;nan;100556.38;4993467;28;20512;-75
2022/06/06 10:22:25;;;;;;;1.73;0.90;;;;;;;36.09;nan;100549.94;4977282;28;20034;-73
2022/06/06 10:25:23;;;;;;;1.77;1.20;;;;;;;35.90;nan;100550.22;4978847;28;20043;-73
2022/06/06 10:28:10;;;;;;;1.30;0.88;;;;;;;35.35;nan;100566.38;4975477;28;20404;-75
2022/06/06 10:30:42;;;;;;;1.05;0.80;;;;;;;33.64;nan;100551.50;4988199;28;20418;-74
2022/06/06 10:33:27;;;;;;;1.70;1.05;;;;;;;32.22;nan;100548.16;4988677;28;20050;-74
2022/06/06 10:36:14;;;;;;;2.73;1.00;;;;;;;31.44;nan;100544.81;4994627;28;20429;-74
2022/06/06 10:38:42;;;;;;;2.45;1.17;;;;;;;30.59;nan;100546.13;4989746;28;20090;-74
2022/06/06 10:41:34;;;;;;;1.95;1.10;;;;;;;30.02;nan;100547.56;4994218;28;20041;-75
2022/06/06 10:44:44;;;;;;;1.98;1.20;;;;;;;29.22;nan;100540.22;4989598;28;20177;-75
2022/06/06 10:47:28;;;;;;;1.52;1.00;;;;;;;28.66;nan;100534.81;4979222;28;20458;-75
2022/06/06 10:50:18;;;;;;;2.78;1.05;;;;;;;28.46;nan;100543.75;4977024;28;20050;-74
2022/06/06 10:53:24;;;;;;;1.73;1.13;;;;;;;28.15;nan;100532.81;4989672;28;20030;-75
2022/06/06 10:56:04;;;;;;;3.92;1.40;;;;;;;27.95;nan;100528.97;4990965;28;20535;-74
2022/06/06 10:59:12;;;;;;;2.40;1.87;;;;;;;27.59;nan;100536.13;4993820;28;20073;-75
2022/06/06 11:01:56;;;;;;;2.65;1.65;;;;;;;26.87;nan;100546.53;4990231;28;20660;-74
2022/06/06 11:04:24;;;;;;;2.35;1.42;;;;;;;26.52;nan;100554.34;4984787;28;20054;-73
2022/06/06 11:07:18;;;;;;;2.67;1.42;;;;;;;26.03;nan;100547.09;4988867;28;20042;-75
2022/06/06 11:09:59;;;;;;;2.42;1.20;;;;;;;25.78;nan;100545.66;4987876;28;20045;-74
2022/06/06 11:12:40;;;;;;;1.90;1.08;;;;;;;25.56;nan;100542.97;4990149;28;20133;-74
2022/06/06 11:15:06;;;;;;;1.80;1.00;;;;;;;25.49;nan;100546.94;4990554;28;20189;-74
2022/06/06 11:17:56;;;;;;;2.33;1.30;;;;;;;25.29;nan;100532.03;4987748;28;20042;-74
2022/06/06 11:20:43;;;;;;;3.60;2.08;;;;;;;25.07;nan;100536.53;4985376;28;20634;-74
2022/06/06 11:23:20;;;;;;;2.53;1.80;;;;;;;25.13;nan;100533.69;4990256;28;20440;-72
2022/06/06 11:25:52;;;;;;;2.90;1.88;;;;;;;25.53;nan;100529.09;4987417;28;20048;-72
2022/06/06 11:28:44;;;;;;;2.88;1.75;;;;;;;26.23;nan;100531.03;4989956;28;20030;-72
2022/06/06 11:31:28;;;;;;;1.80;1.33;;;;;;;26.25;nan;100545.16;4989190;28;20038;-73
2022/06/06 11:34:37;;;;;;;2.55;1.50;;;;;;;26.10;nan;100538.72;4969611;28;20041;-73
2022/06/06 11:37:23;;;;;;;3.42;1.58;;;;;;;25.94;nan;100541.28;4989581;28;20056;-73
2022/06/06 11:40:10;;;;;;;2.38;1.27;;;;;;;25.88;nan;100547.69;4987685;28;20057;-72
2022/06/06 11:42:53;;;;;;;2.45;1.30;;;;;;;25.69;nan;100541.75;4985073;28;20042;-73
2022/06/06 11:45:37;;;;;;;1.42;0.95;;;;;;;25.61;nan;100547.63;4988990;28;20034;-73
2022/06/06 11:48:24;;;;;;;1.65;1.10;;;;;;;25.43;nan;100546.03;4989040;28;20046;-72
2022/06/06 11:51:26;;;;;;;2.10;0.98;;;;;;;25.27;nan;100549.59;4989422;28;20034;-73
2022/06/06 11:54:18;;;;;;;1.63;1.15;;;;;;;24.98;nan;100544.28;4989494;28;20037;-74
2022/06/06 11:56:52;;;;;;;2.13;1.10;;;;;;;24.87;nan;100545.19;4988520;28;20450;-73
2022/06/06 11:59:39;;;;;;;2.45;1.23;;;;;;;24.62;nan;100551.78;4983837;28;20409;-73
2022/06/06 12:02:42;;;;;;;1.92;0.90;;;;;;;24.35;nan;100540.75;4989087;28;20037;-72
2022/06/06 12:05:13;;;;;;;2.88;1.33;;;;;;;24.23;nan;100543.50;4988826;28;20475;-73
2022/06/06 12:08:06;;;;;;;2.17;1.35;;;;;;;24.13;nan;100538.72;4988536;28;20038;-73
2022/06/06 12:10:51;;;;;;;3.60;1.60;;;;;;;24.05;nan;100541.81;4988860;28;20039;-73
2022/06/06 12:13:59;;;;;;;1.67;1.25;;;;;;;24.17;nan;100533.69;4988636;28;20779;-72
2022/06/06 12:16:47;;;;;;;2.30;1.60;;;;;;;26.39;nan;100529.28;4964071;28;20117;-73
2022/06/06 12:19:23;;;;;;;3.42;1.20;;;;;;;29.08;nan;100530.97;4988245;28;20034;-73
2022/06/06 12:22:07;;;;;;;1.50;0.98;;;;;;;30.05;nan;100530.63;4968771;28;20433;-72
2022/06/06 12:24:50;;;;;;;2.03;1.10;;;;;;;29.57;nan;100524.84;4989006;28;20041;-73
2022/06/06 12:27:30;;;;;;;1.25;0.90;;;;;;;29.24;nan;100524.41;4988353;28;20041;-73
2022/06/06 12:29:58;;;;;;;1.00;0.80;;;;;;;28.71;nan;100519.28;4987049;28;20396;-73
2022/06/06 12:32:44;;;;;;;1.65;0.90;;;;;;;28.55;nan;100523.09;4987873;28;20048;-73
2022/06/06 12:35:19;;;;;;;2.03;1.10;;;;;;;28.63;nan;100519.84;4994436;28;20487;-73
2022/06/06 12:38:04;;;;;;;1.48;0.93;;;;;;;28.75;nan;100514.13;4986996;28;20049;-74
2022/06/06 12:41:17;;;;;;;1.42;0.90;;;;;;;28.87;nan;100511.13;4985236;28;20045;-73
2022/06/06 12:43:54;;;;;;;2.03;0.90;;;;;;;28.94;nan;100509.75;4944660;28;20087;-74
2022/06/06 12:46:42;;;;;;;2.42;0.93;;;;;;;29.04;nan;100497.22;4987399;28;20454;-73
2022/06/06 12:49:15;;;;;;;0.85;0.75;;;;;;;29.27;nan;100468.56;4987291;28;20065;-74
2022/06/06 12:51:59;;;;;;;1.85;0.90;;;;;;;29.41;nan;100500.41;4987928;28;20092;-74
2022/06/06 12:57:37;;;;;;;1.75;0.90;;;;;;;28.51;nan;100489.38;4984821;28;20061;-73
2022/06/06 13:00:05;;;;;;;1.27;0.90;;;;;;;28.19;nan;100479.53;4987365;28;20039;-73
2022/06/06 13:03:02;;;;;;;2.05;0.90;;;;;;;27.77;nan;100488.69;4994629;28;20499;-73
2022/06/06 13:05:59;;;;;;;2.00;0.90;;;;;;;27.80;nan;100477.25;4985374;28;20038;-73
2022/06/06 13:08:54;;;;;;;0.90;0.70;;;;;;;27.81;nan;100472.63;4988289;28;20034;-73
2022/06/06 13:11:42;;;;;;;1.27;0.70;;;;;;;27.41;nan;100461.38;4981716;28;20065;-72
2022/06/06 13:14:40;;;;;;;1.55;0.90;;;;;;;27.08;nan;100470.69;4986885;28;20030;-73